Latest Coastal Weather Observations for Aireys Inlet

IDV60701

Issued at 2:42 pm EDT Sunday 22 January 2017 (issued every 10 minutes, with the page automatically refreshed every 10 minutes)

About coastal observations | Map of coastal stations | Coastal observations for VIC | Marine services | Other Formats
Station Details ID: 090180 Name: AIREYS INLET Lat: -38.46 Lon: 144.09 Height: 105.0 m
Data from the previous 72 hours. | See also: Recent months at Aireys Inlet
Date/Time
EDT
Temp
°C
Wind Pressure Rain since
9am
mm
Weather Cloud Vis
km
Sea
Height
m
Swell
Dir  Spd
kts
Gust
kts
hPa Trend Height
m
Period
s
Dir
22/02:30pm 20.6 ESE 5 8 - - 0.0 - - - - - - -
22/02:00pm 20.8 ESE 5 8 - - 0.0 - - - - - - -
22/01:30pm 20.6 ESE 8 10 - - 0.0 - - - - - - -
22/01:00pm 20.5 ESE 7 11 - - 0.0 - - - - - - -
22/12:30pm 20.7 E 6 10 - - 0.0 - - - - - - -
22/12:00pm 20.2 E 7 11 - - 0.0 - - - - - - -
22/11:30am 19.9 E 7 12 - - 0.0 - - - - - - -
22/11:00am 19.7 E 7 10 - - 0.0 - - - - - - -
22/10:30am 19.4 E 6 11 - - 0.0 - - - - - - -
22/10:00am 19.2 ENE 5 8 - - 0.0 - - - - - - -
22/09:30am 18.6 ENE 5 8 - - 0.0 - - - - - - -
22/09:00am 17.7 ENE 5 9 - - 0.0 - - - - - - -
22/08:30am 17.0 ENE 3 3 - - 0.0 - - - - - - -
22/08:00am 14.7 CALM 0 1 - - 0.0 - - - - - - -
22/07:30am 13.4 NNW 3 3 - - 0.0 - - - - - - -
22/07:00am 12.7 NNW 4 5 - - 0.0 - - - - - - -
22/06:30am 12.5 NNW 4 5 - - 0.0 - - - - - - -
22/06:00am 12.3 NNW 5 6 - - 0.0 - - - - - - -
22/05:30am 12.4 NNW 4 5 - - 0.0 - - - - - - -
22/05:00am 12.5 NNW 5 5 - - 0.0 - - - - - - -
22/04:30am 12.6 NW 3 4 - - 0.0 - - - - - - -
22/04:00am 12.8 NW 2 3 - - 0.0 - - - - - - -
22/03:30am 12.9 NW 2 3 - - 0.0 - - - - - - -
22/03:00am 13.1 CALM 0 0 - - 0.0 - - - - - - -
22/02:30am 13.1 WNW 2 2 - - 0.0 - - - - - - -
22/02:00am 13.3 WSW 3 3 - - 0.0 - - - - - - -
22/01:30am 13.6 WSW 3 4 - - 0.0 - - - - - - -
22/01:00am 13.8 WSW 4 5 - - 0.0 - - - - - - -
22/12:30am 13.9 WSW 5 5 - - 0.0 - - - - - - -
22/12:00am 14.1 WSW 4 5 - - 0.0 - - - - - - -
 
Date/Time
EDT
Temp
°C
Wind Pressure Rain since
9am
mm
Weather Cloud Vis
km
Sea
Height
m
Swell
Dir  Spd
kts
Gust
kts
hPa Trend Height
m
Period
s
Dir
21/11:30pm 14.4 SW 4 6 - - 0.0 - - - - - - -
21/11:00pm 15.4 SSW 5 8 - - 0.0 - - - - - - -
21/10:30pm 15.3 SSW 5 8 - - 0.0 - - - - - - -
21/10:00pm 15.3 S 4 7 - - 0.0 - - - - - - -
21/09:30pm 15.6 S 6 8 - - 0.0 - - - - - - -
21/09:00pm 15.8 S 6 9 - - 0.0 - - - - - - -
21/08:30pm 16.6 S 4 7 - - 0.0 - - - - - - -
21/08:00pm 18.2 S 5 7 - - 0.0 - - - - - - -
21/07:30pm 18.7 S 6 9 - - 0.0 - - - - - - -
21/07:00pm 19.4 S 7 10 - - 0.0 - - - - - - -
21/06:30pm 19.9 S 7 10 - - 0.0 - - - - - - -
21/06:00pm 20.4 SSW 8 13 - - 0.0 - - - - - - -
21/05:30pm 21.1 S 9 14 - - 0.0 - - - - - - -
21/05:00pm 19.9 S 8 12 - - 0.0 - - - - - - -
21/04:30pm 20.9 S 8 13 - - 0.0 - - - - - - -
21/04:00pm 20.4 S 8 12 - - 0.0 - - - - - - -
21/03:30pm 20.5 S 8 12 - - 0.0 - - - - - - -
21/03:00pm 21.6 S 7 13 - - 0.0 - - - - - - -
21/02:30pm 20.5 S 8 13 - - 0.0 - - - - - - -
21/02:00pm 20.4 S 8 12 - - 0.0 - - - - - - -
21/01:30pm 20.9 S 8 12 - - 0.0 - - - - - - -
21/01:00pm 21.3 SSW 7 13 - - 0.0 - - - - - - -
21/12:30pm 20.8 SSW 8 13 - - 0.0 - - - - - - -
21/12:00pm 20.6 S 7 11 - - 0.0 - - - - - - -
21/11:30am 20.0 SSW 8 12 - - 0.0 - - - - - - -
21/11:00am 19.3 S 7 13 - - 0.0 - - - - - - -
21/10:30am 18.9 SSW 6 9 - - 0.0 - - - - - - -
21/10:00am 17.9 SSW 3 6 - - 0.0 - - - - - - -
21/09:30am 17.2 SSW 4 5 - - 0.0 - - - - - - -
21/09:00am 16.0 SW 5 8 - - 0.2 - - - - - - -
21/08:30am 15.0 SW 6 10 - - 0.2 - - - - - - -
21/08:00am 13.6 W 4 5 - - 0.2 - - - - - - -
21/07:30am 12.1 WNW 5 6 - - 0.2 - - - - - - -
21/07:00am 11.7 WNW 5 7 - - 0.2 - - - - - - -
21/06:30am 12.0 WNW 6 7 - - 0.2 - - - - - - -
21/06:00am 12.1 WNW 6 8 - - 0.2 - - - - - - -
21/05:30am 12.2 W 7 9 - - 0.2 - - - - - - -
21/05:00am 12.8 W 7 11 - - 0.2 - - - - - - -
21/04:30am 13.1 W 6 9 - - 0.2 - - - - - - -
21/04:00am 12.8 WNW 5 7 - - 0.2 - - - - - - -
21/03:30am 13.7 WSW 8 11 - - 0.2 - - - - - - -
21/03:00am 13.5 WSW 6 9 - - 0.2 - - - - - - -
21/02:30am 13.4 W 5 7 - - 0.2 - - - - - - -
21/02:00am 13.6 WSW 7 9 - - 0.2 - - - - - - -
21/01:30am 14.0 SSW 11 17 - - 0.2 - - - - - - -
21/01:00am 13.9 SSW 12 17 - - 0.2 - - - - - - -
21/12:30am 14.0 SSW 12 19 - - 0.2 - - - - - - -
21/12:00am 14.2 SSW 14 23 - - 0.2 - - - - - - -
 
Date/Time
EDT
Temp
°C
Wind Pressure Rain since
9am
mm
Weather Cloud Vis
km
Sea
Height
m
Swell
Dir  Spd
kts
Gust
kts
hPa Trend Height
m
Period
s
Dir
20/11:30pm 14.4 SSW 11 21 - - 0.2 - - - - - - -
20/11:00pm 14.3 SSW 13 19 - - 0.2 - - - - - - -
20/10:30pm 14.2 SSW 15 22 - - 0.2 - - - - - - -
20/10:00pm 14.1 SSW 14 21 - - 0.2 - - - - - - -
20/09:30pm 14.4 SSW 15 22 - - 0.2 - - - - - - -
20/09:00pm 14.4 SSW 15 23 - - 0.2 - - - - - - -
20/08:30pm 14.5 SW 17 26 - - 0.2 - - - - - - -
20/08:18pm 14.6 SW 17 27 - - 0.2 - - - - - - -
20/08:00pm 14.6 SW 18 28 - - 0.2 - - - - - - -
20/07:30pm 15.4 SW 18 28 - - 0.2 - - - - - - -
20/07:22pm 16.0 SW 18 28 - - 0.2 - - - - - - -
20/07:00pm 15.4 SW 19 26 - - 0.2 - - - - - - -
20/06:45pm 15.2 SW 19 30 - - 0.2 - - - - - - -
20/06:30pm 15.1 SW 20 28 - - 0.2 - - - - - - -
20/06:00pm 15.5 SW 20 31 - - 0.2 - - - - - - -
20/05:30pm 15.9 SW 19 33 - - 0.2 - - - - - - -
20/05:04pm 15.9 SW 20 31 - - 0.2 - - - - - - -
20/05:00pm 16.0 SW 21 29 - - 0.2 - - - - - - -
20/04:30pm 16.6 SW 26 38 - - 0.2 - - - - - - -
20/04:01pm 17.2 SW 23 35 - - 0.2 - - - - - - -
20/04:00pm 17.1 SW 23 32 - - 0.2 - - - - - - -
20/03:30pm 17.5 SW 21 35 - - 0.2 - - - - - - -
20/03:00pm 17.8 SW 24 37 - - 0.2 - - - - - - -
20/02:30pm 17.4 SW 24 35 - - 0.2 - - - - - - -
20/02:00pm 17.8 SW 23 34 - - 0.2 - - - - - - -
20/01:30pm 16.4 SW 22 34 - - 0.2 - - - - - - -
20/01:20pm 17.0 SW 22 36 - - 0.2 - - - - - - -
20/01:00pm 17.7 SW 16 26 - - 0.2 - - - - - - -
20/12:44pm 17.6 SW 15 27 - - 0.2 - - - - - - -
20/12:30pm 17.4 SW 14 21 - - 0.2 - - - - - - -
20/12:00pm 15.5 SW 11 16 - - 0.2 - - - - - - -
20/11:30am 14.8 SW 16 24 - - 0.2 - - - - - - -
20/11:00am 14.5 SW 14 21 - - 0.2 - - - - - - -
20/10:37am 14.8 SW 15 26 - - 0.0 - - - - - - -
20/10:30am 15.2 WSW 14 21 - - 0.0 - - - - - - -
20/10:00am 15.0 SW 16 23 - - 0.0 - - - - - - -
20/09:30am 15.2 SW 15 22 - - 0.0 - - - - - - -
20/09:16am 15.1 SW 16 26 - - 0.0 - - - - - - -
20/09:00am 15.0 SW 17 26 - - 18.8 - - - - - - -
20/08:44am 15.4 SW 12 20 - - 18.8 - - - - - - -
20/08:30am 15.8 WSW 5 10 - - 18.8 - - - - - - -
20/08:00am 15.6 WSW 10 13 - - 18.8 - - - - - - -
20/07:30am 15.5 SW 11 24 - - 18.8 - - - - - - -
20/07:00am 14.8 NNW 10 17 - - 18.6 - - - - - - -
20/06:30am 14.8 NNW 9 15 - - 18.0 - - - - - - -
20/06:00am 14.4 NNE 10 19 - - 18.0 Rain - - - - - -
20/05:30am 14.8 NNE 8 13 - - 17.8 - - - - - - -
20/05:00am 14.8 NNE 8 14 - - 17.8 - - - - - - -
20/04:30am 14.8 NNE 9 15 - - 17.4 - - - - - - -
20/04:00am 15.2 NE 5 8 - - 15.2 - - - - - - -
20/03:30am 15.5 ENE 3 4 - - 10.4 - - - - - - -
20/03:00am 15.7 WSW 4 5 - - 8.4 Rain - - - - - -
20/02:30am 16.0 WSW 2 3 - - 6.8 - - - - - - -
20/02:00am 16.3 SW 6 9 - - 4.2 - - - - - - -
20/01:30am 16.7 WSW 11 16 - - 1.8 - - - - - - -
20/01:00am 17.0 SW 10 15 - - 0.0 - - - - - - -
20/12:30am 16.5 WSW 4 5 - - 0.0 - - - - - - -
20/12:00am 16.4 SW 5 6 - - 0.0 - - - - - - -
 
Date/Time
EDT
Temp
°C
Wind Pressure Rain since
9am
mm
Weather Cloud Vis
km
Sea
Height
m
Swell
Dir  Spd
kts
Gust
kts
hPa Trend Height
m
Period
s
Dir
19/11:30pm 16.1 WSW 3 4 - - 0.0 - - - - - - -
19/11:00pm 16.1 WSW 6 7 - - 0.0 - - - - - - -
19/10:30pm 16.1 SW 7 9 - - 0.0 - - - - - - -
19/10:00pm 15.7 WSW 5 7 - - 0.0 - - - - - - -
19/09:30pm 15.9 SW 6 10 - - 0.0 - - - - - - -
19/09:00pm 16.3 SSW 6 9 - - 0.0 - - - - - - -
19/08:30pm 16.7 SSW 5 7 - - 0.0 - - - - - - -
19/08:00pm 16.9 SSW 5 7 - - 0.0 - - - - - - -
19/07:30pm 17.0 SSE 5 7 - - 0.0 - - - - - - -
19/07:00pm 17.3 S 5 8 - - 0.0 - - - - - - -
19/06:30pm 17.5 S 5 8 - - 0.0 - - - - - - -
19/06:00pm 19.2 SSE 4 7 - - 0.0 - - - - - - -
19/05:30pm 19.7 S 5 7 - - 0.0 - - - - - - -
19/05:00pm 17.3 SE 5 8 - - 0.0 - - - - - - -
19/04:30pm 17.8 SE 5 8 - - 0.0 - - - - - - -
19/04:00pm 18.7 SSE 6 10 - - 0.0 - - - - - - -
19/03:30pm 18.0 SSE 6 10 - - 0.0 - - - - - - -
19/03:00pm 19.3 SSE 6 9 - - 0.0 - - - - - - -

Other Formats:

Comma delimited format used in spreadsheet applications
http://www.bom.gov.au/fwo/IDV60701/IDV60701.94846.axf

JavaScript Object Notation format (JSON) in row-major order
http://www.bom.gov.au/fwo/IDV60701/IDV60701.94846.json